createdAt,value
2019-02-23T00:02:23.909Z,110.37
2019-02-23T00:05:24.112Z,103.47
2019-02-23T00:07:53.613Z,97.37
2019-02-23T00:10:29.568Z,81.77
2019-02-23T00:12:58.154Z,80.50
2019-02-23T00:15:27.546Z,77.72
2019-02-23T00:18:26.871Z,73.87
2019-02-23T00:20:55.743Z,78.27
2019-02-23T00:23:57.709Z,77.80
2019-02-23T00:26:26.806Z,91.65
2019-02-23T00:29:26.924Z,90.00
2019-02-23T00:31:55.813Z,87.23
2019-02-23T00:34:30.738Z,83.15
2019-02-23T00:36:59.959Z,82.73
2019-02-23T00:39:28.827Z,91.30
2019-02-23T00:44:56.298Z,91.67
2019-02-23T00:47:55.302Z,88.93
2019-02-23T00:50:24.322Z,83.47
2019-02-23T00:53:23.121Z,88.07
2019-02-23T00:55:51.970Z,82.67
2019-02-23T00:58:31.194Z,87.33
2019-02-23T01:00:59.883Z,84.50
2019-02-23T01:03:28.775Z,76.83
2019-02-23T01:06:25.405Z,73.57
2019-02-23T01:08:54.192Z,86.07
2019-02-23T01:11:56.722Z,76.57
2019-02-23T01:14:28.323Z,91.67
2019-02-23T01:19:52.242Z,87.43
2019-02-23T01:22:29.013Z,80.77
2019-02-23T01:24:58.090Z,79.75
2019-02-23T01:27:27.642Z,90.43
2019-02-23T01:29:57.702Z,96.42
2019-02-23T01:32:27.926Z,88.60
2019-02-23T01:34:56.818Z,89.83
2019-02-23T01:37:25.825Z,93.30
2019-02-23T01:40:15.792Z,91.95
2019-02-23T01:42:44.710Z,93.60
2019-02-23T01:45:13.189Z,86.97
2019-02-23T01:47:42.150Z,94.97
2019-02-23T01:50:11.693Z,90.47
2019-02-23T01:52:40.538Z,98.23
2019-02-23T01:55:12.297Z,92.97
2019-02-23T01:57:41.190Z,99.07
2019-02-23T02:03:09.482Z,98.33
2019-02-23T02:05:46.278Z,94.20
2019-02-23T02:08:15.155Z,105.95
2019-02-23T02:10:44.261Z,92.87
2019-02-23T02:13:12.934Z,102.47
2019-02-23T02:15:41.911Z,96.03
2019-02-23T02:18:10.807Z,93.42
2019-02-23T02:20:56.402Z,100.80
2019-02-23T02:23:27.754Z,99.20
2019-02-23T02:26:26.733Z,101.92
2019-02-23T02:28:55.302Z,99.00
2019-02-23T02:31:31.676Z,97.78
2019-02-23T02:34:04.302Z,100.90
2019-02-23T02:36:33.338Z,90.07
2019-02-23T02:39:04.789Z,100.13
2019-02-23T02:41:35.423Z,112.45
2019-02-23T02:44:05.339Z,113.72
2019-02-23T02:46:33.918Z,109.40
2019-02-23T02:49:03.023Z,99.87
2019-02-23T02:51:32.224Z,103.80
2019-02-23T02:54:01.055Z,108.63
2019-02-23T02:57:00.304Z,111.45
2019-02-23T02:59:29.897Z,118.70
2019-02-23T03:01:59.000Z,111.67
2019-02-23T03:04:28.190Z,126.73
2019-02-23T03:06:57.382Z,118.45
2019-02-23T03:09:26.378Z,132.57
2019-02-23T03:11:55.284Z,127.27
2019-02-23T03:14:43.304Z,121.50
2019-02-23T03:17:12.299Z,127.67
2019-02-23T03:19:48.549Z,122.30
2019-02-23T03:22:17.347Z,129.33
2019-02-23T03:24:46.580Z,133.27
2019-02-23T03:27:15.582Z,141.28
2019-02-23T03:29:44.457Z,135.10
2019-02-23T03:32:13.026Z,138.23
2019-02-23T03:34:41.893Z,136.47
2019-02-23T03:37:10.481Z,140.73
2019-02-23T03:39:39.366Z,143.60
2019-02-23T03:42:26.285Z,141.67
2019-02-23T03:44:55.163Z,141.73
2019-02-23T03:47:31.124Z,141.93
2019-02-23T03:49:59.697Z,140.35
2019-02-23T03:52:28.695Z,129.53
2019-02-23T03:54:57.273Z,139.55
2019-02-23T03:57:28.421Z,151.83
2019-02-23T03:59:57.509Z,137.25
2019-02-23T04:02:56.406Z,143.10
2019-02-23T04:05:26.028Z,145.77
2019-02-23T04:08:24.294Z,139.60
2019-02-23T04:10:53.379Z,133.53
2019-02-23T04:13:31.277Z,154.68
2019-02-23T04:16:00.474Z,146.22
2019-02-23T04:18:29.366Z,140.03
2019-02-23T04:23:55.307Z,151.40
2019-02-23T04:29:24.234Z,161.93
2019-02-23T04:32:23.717Z,167.00
2019-02-23T04:34:52.232Z,167.00
2019-02-23T04:37:28.661Z,163.33
2019-02-23T04:39:57.654Z,166.15
2019-02-23T04:42:26.645Z,179.27
2019-02-23T04:44:55.638Z,175.07
2019-02-23T04:47:24.447Z,178.83
2019-02-23T04:50:18.098Z,185.73
2019-02-23T04:52:48.009Z,190.73
2019-02-23T04:55:45.461Z,187.20
2019-02-23T05:00:51.335Z,177.62
2019-02-23T05:03:19.917Z,169.27
2019-02-23T05:05:48.702Z,172.80
2019-02-23T05:08:27.222Z,176.17
2019-02-23T05:10:56.119Z,179.97
2019-02-23T05:16:23.903Z,219.30
2019-02-23T05:19:26.468Z,221.43
2019-02-23T05:21:55.350Z,231.40
2019-02-23T05:24:30.185Z,225.37
2019-02-23T05:26:59.280Z,234.80
2019-02-23T05:29:28.293Z,223.33
2019-02-23T05:31:57.157Z,214.97
2019-02-23T05:34:26.865Z,207.80
2019-02-23T05:36:55.754Z,205.60
2019-02-23T05:39:24.337Z,196.93
2019-02-23T05:41:53.647Z,202.23
2019-02-23T05:44:28.460Z,199.30
2019-02-23T05:46:57.461Z,195.73
2019-02-23T05:49:36.651Z,188.25
2019-02-23T05:52:04.214Z,182.57
2019-02-23T05:54:33.325Z,195.07
2019-02-23T05:57:26.833Z,198.90
2019-02-23T05:59:55.704Z,185.47
2019-02-23T06:05:23.679Z,177.97
2019-02-23T06:08:26.132Z,211.73
2019-02-23T06:10:56.683Z,182.82
2019-02-23T06:13:31.782Z,190.30
2019-02-23T06:16:00.710Z,187.07
2019-02-23T06:18:29.622Z,176.35
2019-02-23T06:20:58.387Z,180.93
2019-02-23T06:23:30.549Z,173.67
2019-02-23T06:25:59.667Z,177.67
2019-02-23T06:28:28.530Z,177.70
2019-02-23T06:30:57.453Z,178.60
2019-02-23T06:33:26.619Z,189.97
2019-02-23T06:35:55.505Z,191.37
2019-02-23T06:38:24.295Z,174.57
2019-02-23T06:40:52.984Z,180.90
2019-02-23T06:43:21.559Z,179.43
2019-02-23T06:45:50.453Z,166.30
2019-02-23T06:48:19.941Z,179.57
2019-02-23T06:50:50.274Z,176.27
2019-02-23T06:53:19.162Z,160.78
2019-02-23T06:56:10.261Z,166.50
2019-02-23T06:58:39.163Z,168.73
2019-02-23T07:01:14.117Z,166.10
2019-02-23T07:03:43.094Z,157.27
2019-02-23T07:06:11.580Z,159.90
2019-02-23T07:08:40.471Z,156.27
2019-02-23T07:11:10.669Z,148.25
2019-02-23T07:13:58.219Z,146.87
2019-02-23T07:16:27.607Z,144.10
2019-02-23T07:19:29.665Z,147.28
2019-02-23T07:21:58.553Z,148.73
2019-02-23T07:24:33.901Z,149.53
2019-02-23T07:27:02.810Z,138.50
2019-02-23T07:29:31.778Z,135.12
2019-02-23T07:32:01.106Z,126.62
2019-02-23T07:34:33.958Z,126.57
2019-02-23T07:37:02.745Z,126.65
2019-02-23T07:42:30.217Z,124.10
2019-02-23T07:44:59.113Z,127.43
2019-02-23T07:47:29.533Z,119.00
2019-02-23T07:49:59.434Z,112.13
2019-02-23T07:52:28.571Z,122.45
2019-02-23T07:54:57.581Z,124.07
2019-02-23T07:57:27.738Z,120.83
2019-02-23T08:00:21.321Z,113.83
2019-02-23T08:02:50.422Z,117.42
2019-02-23T08:08:17.582Z,111.03
2019-02-23T08:11:17.393Z,110.60
2019-02-23T08:13:46.290Z,112.80
2019-02-23T08:16:22.133Z,109.37
2019-02-23T08:18:50.729Z,109.37
2019-02-23T08:21:19.414Z,105.27
2019-02-23T08:23:47.991Z,105.52
2019-02-23T08:26:23.173Z,106.47
2019-02-23T08:28:52.116Z,109.27
2019-02-23T08:31:20.900Z,95.43
2019-02-23T08:33:55.316Z,97.20
2019-02-23T08:36:45.710Z,97.27
2019-02-23T08:39:14.732Z,94.60
2019-02-23T08:41:49.552Z,93.05
2019-02-23T08:47:19.769Z,87.87
2019-02-23T08:50:22.044Z,87.57
2019-02-23T08:52:52.488Z,87.15
2019-02-23T08:55:51.889Z,89.07
2019-02-23T08:58:20.450Z,90.20
2019-02-23T09:01:19.180Z,90.53
2019-02-23T09:04:06.896Z,78.37
2019-02-23T09:06:35.904Z,82.80
2019-02-23T09:09:08.218Z,73.36
2019-02-23T09:11:37.125Z,76.93
2019-02-23T09:16:54.557Z,74.33
2019-02-23T09:22:23.352Z,70.63
2019-02-23T09:27:50.939Z,76.07
2019-02-23T09:32:57.320Z,76.47
2019-02-23T09:35:27.028Z,71.57
2019-02-23T09:37:55.918Z,76.20
2019-02-23T09:40:28.622Z,81.30
2019-02-23T09:42:57.919Z,72.95
2019-02-23T09:48:25.978Z,69.30
2019-02-23T09:51:24.269Z,63.65
2019-02-23T09:53:53.413Z,61.80
2019-02-23T09:56:28.666Z,62.43
2019-02-23T09:58:59.045Z,68.13
2019-02-23T10:01:30.068Z,62.97
2019-02-23T10:04:26.645Z,64.72
2019-02-23T10:06:55.495Z,62.30
2019-02-23T10:12:22.549Z,64.17
2019-02-23T10:17:58.017Z,62.85
2019-02-23T10:20:30.337Z,68.83
2019-02-23T10:22:59.478Z,69.58
2019-02-23T10:25:28.695Z,64.42
2019-02-23T10:27:59.239Z,63.58
2019-02-23T10:30:28.302Z,66.75
2019-02-23T10:32:57.492Z,61.40
2019-02-23T10:35:26.713Z,70.95
2019-02-23T10:37:55.589Z,65.07
2019-02-23T10:40:24.263Z,68.62
2019-02-23T10:42:53.154Z,64.63
2019-02-23T10:45:22.037Z,61.48
2019-02-23T10:47:51.242Z,62.60
2019-02-23T10:50:20.021Z,64.57
2019-02-23T10:52:48.605Z,61.33
2019-02-23T10:55:17.298Z,65.43
2019-02-23T10:57:46.489Z,64.10
2019-02-23T11:00:34.039Z,61.67
2019-02-23T11:03:02.701Z,62.20
2019-02-23T11:08:23.021Z,61.77
2019-02-23T11:13:51.399Z,58.60
2019-02-23T11:16:27.606Z,60.88
2019-02-23T11:18:56.855Z,58.42
2019-02-23T11:21:26.030Z,59.97
2019-02-23T11:23:54.636Z,58.83
2019-02-23T11:26:23.653Z,57.97
2019-02-23T11:29:01.218Z,55.17
2019-02-23T11:31:30.140Z,62.40
2019-02-23T11:34:29.314Z,58.55
2019-02-23T11:36:58.201Z,56.50
2019-02-23T11:39:32.538Z,61.23
2019-02-23T11:42:01.410Z,56.83
2019-02-23T11:44:29.992Z,56.18
2019-02-23T11:47:00.486Z,59.05
2019-02-23T11:49:31.155Z,57.27
2019-02-23T11:52:21.853Z,51.02
2019-02-23T11:54:51.041Z,57.78
2019-02-23T11:57:49.735Z,51.63
2019-02-23T12:00:19.079Z,54.07
2019-02-23T12:02:54.265Z,59.73
2019-02-23T12:05:23.255Z,53.63
2019-02-23T12:07:52.454Z,56.10
2019-02-23T12:10:28.105Z,52.57
2019-02-23T12:12:56.786Z,55.30
2019-02-23T12:18:21.697Z,52.75
2019-02-23T12:23:49.373Z,50.28
2019-02-23T12:28:57.294Z,56.80
2019-02-23T12:31:26.249Z,48.70
2019-02-23T12:34:28.993Z,53.83
2019-02-23T12:36:57.859Z,49.80
2019-02-23T12:42:27.555Z,50.13
2019-02-23T12:45:28.635Z,48.87
2019-02-23T12:47:57.519Z,51.30
2019-02-23T12:50:33.476Z,43.78
2019-02-23T12:53:02.567Z,52.93
2019-02-23T12:55:32.177Z,45.38
2019-02-23T13:00:56.061Z,45.80
2019-02-23T13:04:09.679Z,47.85
2019-02-23T13:06:28.462Z,48.75
2019-02-23T13:11:58.534Z,43.98
2019-02-23T13:14:34.224Z,47.27
2019-02-23T13:17:20.844Z,47.30
2019-02-23T13:20:07.346Z,44.08
2019-02-23T13:22:49.660Z,41.73
2019-02-23T13:25:20.295Z,43.55
2019-02-23T13:27:54.799Z,44.30
2019-02-23T13:30:25.009Z,42.27
2019-02-23T13:33:20.118Z,40.65
2019-02-23T13:36:06.835Z,42.97
2019-02-23T13:38:43.906Z,44.58
2019-02-23T13:41:22.717Z,43.10
2019-02-23T13:44:09.546Z,44.53
2019-02-23T13:49:16.742Z,41.92
2019-02-23T13:51:47.297Z,37.03
2019-02-23T13:54:20.098Z,38.77
2019-02-23T13:56:57.348Z,38.73
2019-02-23T13:59:33.366Z,41.68
2019-02-23T14:02:12.887Z,35.52
2019-02-23T14:04:42.925Z,36.45
2019-02-23T14:07:16.212Z,37.53
2019-02-23T14:09:58.542Z,33.85
2019-02-23T14:12:28.765Z,40.70
2019-02-23T14:15:05.210Z,37.23
2019-02-23T14:17:44.538Z,38.28
2019-02-23T15:10:52.186Z,40.13
2019-02-23T15:13:29.371Z,41.33
2019-02-23T15:18:45.587Z,42.08
2019-02-23T15:21:27.496Z,39.88
2019-02-23T15:24:00.975Z,41.33
2019-02-23T15:26:46.551Z,43.10
2019-02-23T15:29:19.997Z,38.85
2019-02-23T15:31:55.797Z,37.08
2019-02-23T15:34:40.919Z,40.40
2019-02-23T15:37:22.782Z,66.95
2019-02-23T15:39:53.114Z,56.45
2019-02-23T15:42:26.169Z,49.27
2019-02-23T15:45:16.082Z,42.05
2019-02-23T15:47:46.706Z,49.77
2019-02-23T15:50:15.681Z,41.95
2019-02-23T15:52:44.581Z,40.10
2019-02-23T15:55:25.392Z,39.90
2019-02-23T15:57:43.903Z,40.10
2019-02-23T16:00:16.148Z,40.90
2019-02-23T16:02:45.717Z,37.15
2019-02-23T16:05:15.882Z,36.60
2019-02-23T16:07:44.845Z,36.67
2019-02-23T16:10:20.222Z,39.25
2019-02-23T16:12:49.488Z,41.97
2019-02-23T16:15:18.465Z,39.42
2019-02-23T16:17:47.490Z,38.53
2019-02-23T16:20:16.712Z,35.95
2019-02-23T16:25:43.545Z,33.33
2019-02-23T16:28:45.579Z,33.37
2019-02-23T16:31:14.513Z,33.67
2019-02-23T16:34:13.418Z,33.40
2019-02-23T16:36:42.392Z,34.65
2019-02-23T16:39:18.439Z,38.23
2019-02-23T16:41:47.294Z,35.97
2019-02-23T16:44:15.806Z,37.60
2019-02-23T16:46:46.474Z,37.40
2019-02-23T16:49:17.602Z,38.47
2019-02-23T16:54:47.132Z,42.00
2019-02-23T16:57:17.401Z,54.10
2019-02-23T16:59:46.310Z,42.90
2019-02-23T17:02:14.903Z,36.43
2019-02-23T17:04:53.187Z,40.38
2019-02-23T17:07:14.010Z,41.07
2019-02-23T17:09:43.013Z,40.03
2019-02-23T17:15:06.963Z,39.75
2019-02-23T17:17:35.470Z,40.73
2019-02-23T17:20:06.596Z,39.70
2019-02-23T17:22:37.715Z,40.88
2019-02-23T17:25:06.366Z,40.35
2019-02-23T17:27:36.961Z,40.67
2019-02-23T17:32:40.225Z,45.73
2019-02-23T17:35:10.444Z,46.63
2019-02-23T17:37:39.588Z,49.40
2019-02-23T17:40:08.378Z,41.33
2019-02-23T17:42:36.953Z,55.20
2019-02-23T17:45:07.944Z,47.30
2019-02-23T17:47:37.408Z,46.55
2019-02-23T17:50:07.921Z,43.06
2019-02-23T17:52:37.055Z,49.15
2019-02-23T17:55:07.376Z,50.40
2019-02-23T17:57:36.229Z,52.40
2019-02-23T18:00:08.397Z,61.38
2019-02-23T18:02:40.985Z,52.90
2019-02-23T18:05:09.494Z,54.88
2019-02-23T18:07:38.346Z,49.83
2019-02-23T18:10:06.946Z,47.38
2019-02-23T18:15:13.413Z,52.70
2019-02-23T18:17:42.006Z,56.77
2019-02-23T18:20:11.601Z,57.60
2019-02-23T18:22:45.910Z,53.13
2019-02-23T18:25:16.845Z,59.13
2019-02-23T18:28:49.448Z,55.40
2019-02-23T18:30:21.178Z,59.57
2019-02-23T18:32:50.090Z,57.55
2019-02-23T18:35:18.655Z,55.70
2019-02-23T18:37:47.233Z,61.85
2019-02-23T18:40:15.814Z,59.00
2019-02-23T18:42:44.912Z,56.80
2019-02-23T18:45:13.923Z,57.93
2019-02-23T18:47:42.480Z,61.30
2019-02-23T18:50:12.419Z,58.63
2019-02-23T18:52:41.329Z,58.95
2019-02-23T18:55:09.873Z,55.70
2019-02-23T18:58:26.776Z,52.40
2019-02-23T19:00:31.286Z,59.07
2019-02-23T19:03:00.157Z,56.93
2019-02-23T19:05:29.167Z,102.38
2019-02-23T19:08:00.247Z,84.07
2019-02-23T19:10:28.822Z,85.15
2019-02-23T19:13:03.948Z,78.07
2019-02-23T19:15:32.748Z,74.87
2019-02-23T19:18:01.824Z,72.62
2019-02-23T19:20:36.874Z,82.87
2019-02-23T19:23:05.907Z,88.93
2019-02-23T19:25:35.041Z,85.93
2019-02-23T19:28:03.647Z,98.15
2019-02-23T19:30:33.134Z,97.67
2019-02-23T19:33:02.463Z,102.32
2019-02-23T19:35:34.482Z,100.62
2019-02-23T19:38:03.501Z,97.15
2019-02-23T19:40:32.718Z,106.50
2019-02-23T19:43:01.971Z,107.50
2019-02-23T19:45:31.590Z,102.55
2019-02-23T19:48:13.058Z,99.07
2019-02-23T19:50:43.309Z,102.33
2019-02-23T19:56:10.494Z,102.50
2019-02-23T19:58:39.346Z,105.57
2019-02-23T20:01:07.989Z,105.78
2019-02-23T20:03:36.817Z,94.20
2019-02-23T20:06:06.117Z,111.16
2019-02-23T20:08:35.306Z,125.18
2019-02-23T20:11:03.892Z,121.22
2019-02-23T20:13:32.787Z,129.97
2019-02-23T20:16:12.241Z,163.32
2019-02-23T20:18:41.512Z,152.17
2019-02-23T20:24:09.018Z,168.10
2019-02-23T20:26:46.177Z,174.07
2019-02-23T20:29:15.074Z,127.72
2019-02-23T20:31:50.099Z,108.60
2019-02-23T20:34:18.980Z,110.88
2019-02-23T20:37:17.978Z,114.55
2019-02-23T20:39:48.711Z,124.60
2019-02-23T20:42:44.534Z,126.80
2019-02-23T20:45:13.131Z,120.37
2019-02-23T20:47:42.008Z,114.27
2019-02-23T20:50:10.991Z,99.13
2019-02-23T20:52:39.903Z,103.50
2019-02-23T20:55:09.084Z,106.20
2019-02-23T20:57:38.074Z,111.00
2019-02-23T21:03:06.358Z,108.26
2019-02-23T21:05:35.144Z,110.27
2019-02-23T21:08:03.941Z,107.70
2019-02-23T21:10:33.049Z,111.63
2019-02-23T21:13:02.123Z,120.60
2019-02-23T21:15:32.265Z,118.43
2019-02-23T21:18:02.218Z,115.70
2019-02-23T21:20:32.478Z,111.80
2019-02-23T21:23:04.930Z,127.20
2019-02-23T21:25:33.749Z,132.40
2019-02-23T21:28:02.628Z,140.67
2019-02-23T21:30:31.518Z,129.43
2019-02-23T21:33:00.907Z,125.70
2019-02-23T21:35:30.010Z,118.93
2019-02-23T21:37:59.049Z,124.23
2019-02-23T21:40:28.017Z,118.73
2019-02-23T21:42:56.883Z,159.30
2019-02-23T21:45:25.878Z,162.10
2019-02-23T21:47:54.458Z,148.17
2019-02-23T21:50:23.047Z,139.10
2019-02-23T21:52:52.348Z,125.72
2019-02-23T21:55:21.046Z,116.20
2019-02-23T22:00:39.099Z,129.60
2019-02-23T22:03:07.991Z,125.60
2019-02-23T22:05:36.961Z,127.50
2019-02-23T22:08:06.813Z,117.97
2019-02-23T22:10:35.464Z,124.95
2019-02-23T22:13:05.996Z,132.10
2019-02-23T22:15:34.981Z,127.57
2019-02-23T22:18:05.096Z,131.32
2019-02-23T22:20:34.218Z,139.85
2019-02-23T22:23:03.283Z,128.43
2019-02-23T22:25:53.581Z,130.10
2019-02-23T22:28:22.582Z,125.60
2019-02-23T22:31:22.091Z,131.37
2019-02-23T22:33:52.596Z,113.43
2019-02-23T22:39:15.154Z,122.20
2019-02-23T22:41:49.555Z,131.90
2019-02-23T22:44:14.260Z,132.77
2019-02-23T22:46:43.157Z,130.60
2019-02-23T22:49:11.861Z,131.30
2019-02-23T22:51:48.508Z,139.27
2019-02-23T22:54:17.092Z,130.43
2019-02-23T22:57:18.386Z,138.80
2019-02-23T22:59:47.333Z,144.93
2019-02-23T23:02:46.659Z,175.03
2019-02-23T23:05:15.627Z,163.57
2019-02-23T23:07:44.737Z,146.50
2019-02-23T23:10:13.525Z,183.77
2019-02-23T23:12:42.645Z,161.77
2019-02-23T23:15:11.186Z,185.10
2019-02-23T23:17:41.918Z,163.57
2019-02-23T23:20:10.809Z,147.70
2019-02-23T23:22:39.794Z,130.77
2019-02-23T23:27:49.689Z,112.20
2019-02-23T23:30:18.240Z,104.97
2019-02-23T23:32:47.233Z,109.97
2019-02-23T23:35:15.833Z,99.73
2019-02-23T23:37:45.726Z,108.10
2019-02-23T23:40:14.316Z,127.13
2019-02-23T23:42:43.212Z,127.67
2019-02-23T23:45:12.082Z,137.62
2019-02-23T23:47:47.973Z,128.00
2019-02-23T23:50:16.449Z,134.07
2019-02-23T23:52:45.364Z,139.30
2019-02-23T23:55:14.314Z,137.75
2019-02-23T23:57:43.391Z,131.20
